createdAt,value
2019-01-25T00:00:48.805Z,74.40
2019-01-25T00:03:19.728Z,74.44
2019-01-25T00:05:50.717Z,74.26
2019-01-25T00:08:21.416Z,74.48
2019-01-25T00:10:52.024Z,74.38
2019-01-25T00:13:22.952Z,74.60
2019-01-25T00:15:54.034Z,74.40
2019-01-25T00:18:25.156Z,74.65
2019-01-25T00:20:56.141Z,74.64
2019-01-25T00:23:27.622Z,74.39
2019-01-25T00:25:58.926Z,74.70
2019-01-25T00:28:29.938Z,74.63
2019-01-25T00:31:01.027Z,74.71
2019-01-25T00:33:32.047Z,74.45
2019-01-25T00:36:03.409Z,74.80
2019-01-25T00:38:34.828Z,74.65
2019-01-25T00:41:05.870Z,74.83
2019-01-25T00:43:36.835Z,74.78
2019-01-25T00:46:07.650Z,74.86
2019-01-25T00:48:38.199Z,74.67
2019-01-25T00:51:09.080Z,74.87
2019-01-25T00:53:40.144Z,74.87
2019-01-25T00:56:11.639Z,74.84
2019-01-25T00:58:43.414Z,74.89
2019-01-25T01:01:14.993Z,74.83
2019-01-25T01:03:46.590Z,74.86
2019-01-25T01:06:18.170Z,74.78
2019-01-25T01:08:49.289Z,74.70
2019-01-25T01:11:21.933Z,74.87
2019-01-25T01:13:52.962Z,74.92
2019-01-25T01:16:24.537Z,74.97
2019-01-25T01:18:56.839Z,75.15
2019-01-25T01:21:28.515Z,74.93
2019-01-25T01:23:59.286Z,74.79
2019-01-25T01:26:30.450Z,75.06
2019-01-25T01:29:01.179Z,75.20
2019-01-25T01:31:32.025Z,75.23
2019-01-25T01:34:03.109Z,75.40
2019-01-25T01:36:34.668Z,75.26
2019-01-25T01:39:08.099Z,75.34
2019-01-25T01:41:40.688Z,75.21
2019-01-25T01:44:12.137Z,75.46
2019-01-25T01:46:43.576Z,75.35
2019-01-25T01:49:15.084Z,75.40
2019-01-25T01:51:46.144Z,75.51
2019-01-25T01:54:17.659Z,75.35
2019-01-25T01:56:49.070Z,75.50
2019-01-25T01:59:20.138Z,75.63
2019-01-25T02:01:51.299Z,75.67
2019-01-25T02:04:22.013Z,75.70
2019-01-25T02:06:53.099Z,75.81
2019-01-25T02:09:24.250Z,75.75
2019-01-25T02:11:55.674Z,75.84
2019-01-25T02:14:26.856Z,75.93
2019-01-25T02:16:59.215Z,76.01
2019-01-25T02:19:29.958Z,75.99
2019-01-25T02:22:01.107Z,75.88
2019-01-25T02:24:32.615Z,76.02
2019-01-25T02:27:04.391Z,75.99
2019-01-25T02:29:35.455Z,76.03
2019-01-25T02:32:06.862Z,76.01
2019-01-25T02:34:37.911Z,75.90
2019-01-25T02:37:09.421Z,76.19
2019-01-25T02:39:40.555Z,76.16
2019-01-25T02:42:13.016Z,76.21
2019-01-25T02:44:44.086Z,76.23
2019-01-25T02:47:15.253Z,76.41
2019-01-25T02:49:46.296Z,76.42
2019-01-25T02:52:17.986Z,76.38
2019-01-25T02:54:48.784Z,76.30
2019-01-25T02:57:19.626Z,76.43
2019-01-25T02:59:50.370Z,76.48
2019-01-25T03:02:21.031Z,76.56
2019-01-25T03:04:51.814Z,76.67
2019-01-25T03:07:22.525Z,76.65
2019-01-25T03:09:53.333Z,76.41
2019-01-25T03:12:24.014Z,76.48
2019-01-25T03:14:54.742Z,76.28
2019-01-25T03:17:25.898Z,76.48
2019-01-25T03:19:57.194Z,76.50
2019-01-25T03:22:27.927Z,76.42
2019-01-25T03:24:58.678Z,76.40
2019-01-25T03:27:29.460Z,76.33
2019-01-25T03:30:00.457Z,76.36
2019-01-25T03:32:31.390Z,76.47
2019-01-25T03:35:02.980Z,76.40
2019-01-25T03:37:34.099Z,76.59
2019-01-25T03:40:05.994Z,76.57
2019-01-25T03:42:37.434Z,76.62
2019-01-25T03:45:08.945Z,76.81
2019-01-25T03:47:40.404Z,76.82
2019-01-25T03:50:13.716Z,76.86
2019-01-25T03:52:45.206Z,76.81
2019-01-25T03:55:16.381Z,76.90
2019-01-25T03:57:47.445Z,76.97
2019-01-25T04:00:21.525Z,76.98
2019-01-25T04:02:52.681Z,76.97
2019-01-25T04:05:23.423Z,76.93
2019-01-25T04:07:54.151Z,76.99
2019-01-25T04:10:27.045Z,77.13
2019-01-25T04:12:57.697Z,77.21
2019-01-25T04:15:31.701Z,77.29
2019-01-25T04:18:02.488Z,77.22
2019-01-25T04:20:33.158Z,77.07
2019-01-25T04:23:05.134Z,77.14
2019-01-25T04:25:36.244Z,77.36
2019-01-25T04:28:07.194Z,77.15
2019-01-25T04:30:38.249Z,77.15
2019-01-25T04:33:09.006Z,77.19
2019-01-25T04:35:40.072Z,77.42
2019-01-25T04:38:11.499Z,77.55
2019-01-25T04:40:42.648Z,77.48
2019-01-25T04:43:14.127Z,77.56
2019-01-25T04:45:46.499Z,77.46
2019-01-25T04:48:18.462Z,77.33
2019-01-25T04:50:51.541Z,77.37
2019-01-25T04:53:22.563Z,77.32
2019-01-25T04:55:53.727Z,77.48
2019-01-25T04:58:24.830Z,77.44
2019-01-25T05:00:55.915Z,77.54
2019-01-25T05:03:27.369Z,77.39
2019-01-25T05:05:58.432Z,77.49
2019-01-25T05:08:30.198Z,77.68
2019-01-25T05:11:01.645Z,77.89
2019-01-25T05:13:32.916Z,77.85
2019-01-25T05:16:03.899Z,78.00
2019-01-25T05:18:34.945Z,78.08
2019-01-25T05:21:05.697Z,78.11
2019-01-25T05:23:36.782Z,78.03
2019-01-25T05:29:17.840Z,78.18
2019-01-25T05:31:48.590Z,78.27
2019-01-25T05:34:19.624Z,78.21
2019-01-25T05:36:50.524Z,78.25
2019-01-25T05:39:21.320Z,78.19
2019-01-25T05:41:54.538Z,78.16
2019-01-25T05:44:25.455Z,78.11
2019-01-25T05:46:56.238Z,78.05
2019-01-25T05:49:27.589Z,78.52
2019-01-25T05:51:58.669Z,78.62
2019-01-25T05:54:30.056Z,78.74
2019-01-25T05:57:02.145Z,78.75
2019-01-25T05:59:33.253Z,78.79
2019-01-25T06:02:04.487Z,78.69
2019-01-25T06:04:36.574Z,78.60
2019-01-25T06:07:07.748Z,78.46
2019-01-25T06:09:38.921Z,78.42
2019-01-25T06:12:09.951Z,78.22
2019-01-25T06:14:41.022Z,78.24
2019-01-25T06:17:22.246Z,78.24
2019-01-25T06:19:53.242Z,78.39
2019-01-25T06:22:25.147Z,78.66
2019-01-25T06:24:56.523Z,78.70
2019-01-25T06:27:27.856Z,78.61
2019-01-25T06:29:58.940Z,78.48
2019-01-25T06:32:29.959Z,78.54
2019-01-25T06:35:01.039Z,78.74
2019-01-25T06:37:31.790Z,78.64
2019-01-25T06:40:02.542Z,78.81
2019-01-25T06:42:33.347Z,78.58
2019-01-25T06:45:04.093Z,78.73
2019-01-25T06:47:35.099Z,78.76
2019-01-25T06:50:06.751Z,78.74
2019-01-25T06:52:37.780Z,78.72
2019-01-25T06:55:09.272Z,78.41
2019-01-25T06:57:50.571Z,78.62
2019-01-25T07:00:24.510Z,78.86
2019-01-25T07:02:55.969Z,78.77
2019-01-25T07:05:27.113Z,78.69
2019-01-25T07:07:59.502Z,78.64
2019-01-25T07:10:30.552Z,78.51
2019-01-25T07:13:02.472Z,78.17
2019-01-25T07:15:34.486Z,78.18
2019-01-25T07:18:05.241Z,78.32
2019-01-25T07:20:35.946Z,78.63
2019-01-25T07:23:07.141Z,78.65
2019-01-25T07:25:37.850Z,78.70
2019-01-25T07:28:08.958Z,78.84
2019-01-25T07:30:40.063Z,79.08
2019-01-25T07:33:11.369Z,79.13
2019-01-25T07:35:42.767Z,79.00
2019-01-25T07:38:14.209Z,79.20
2019-01-25T07:40:45.391Z,79.60
2019-01-25T07:43:17.117Z,79.62
2019-01-25T07:45:48.707Z,79.45
2019-01-25T07:48:20.985Z,79.54
2019-01-25T07:50:53.353Z,79.68
2019-01-25T07:53:24.783Z,79.78
2019-01-25T07:55:56.646Z,79.85
2019-01-25T07:58:28.262Z,79.81
2019-01-25T08:00:59.413Z,79.79
2019-01-25T08:03:30.555Z,79.84
2019-01-25T08:06:02.012Z,79.89
2019-01-25T08:08:33.606Z,79.86
2019-01-25T08:11:05.745Z,79.74
2019-01-25T08:13:37.365Z,79.82
2019-01-25T08:16:09.725Z,79.81
2019-01-25T08:18:41.068Z,79.82
2019-01-25T08:21:14.211Z,79.91
2019-01-25T08:23:46.421Z,79.92
2019-01-25T08:26:19.708Z,79.91
2019-01-25T08:28:51.448Z,80.04
2019-01-25T08:31:23.165Z,80.06
2019-01-25T08:33:54.266Z,79.73
2019-01-25T08:36:30.225Z,80.05
2019-01-25T08:39:01.374Z,80.25
2019-01-25T08:41:32.206Z,80.09
2019-01-25T08:44:03.246Z,79.79
2019-01-25T08:46:53.708Z,80.06
2019-01-25T08:49:24.805Z,80.55
2019-01-25T08:51:55.860Z,80.82
2019-01-25T08:54:27.575Z,80.52
2019-01-25T08:56:58.993Z,79.68
2019-01-25T08:59:31.771Z,79.54
2019-01-25T09:02:02.897Z,80.29
2019-01-25T09:04:33.959Z,80.28
2019-01-25T09:07:04.948Z,79.80
2019-01-25T09:09:36.207Z,79.24
2019-01-25T09:12:07.300Z,79.08
2019-01-25T09:14:38.347Z,79.00
2019-01-25T09:17:09.467Z,78.91
2019-01-25T09:19:40.437Z,78.81
2019-01-25T09:22:11.194Z,78.99
2019-01-25T09:24:42.286Z,78.89
2019-01-25T09:27:13.367Z,79.09
2019-01-25T09:29:44.414Z,79.39
2019-01-25T09:32:15.872Z,79.26
2019-01-25T09:34:47.257Z,78.87
2019-01-25T09:37:18.624Z,78.75
2019-01-25T09:39:49.449Z,78.60
2019-01-25T09:42:20.529Z,78.24
2019-01-25T09:44:52.270Z,78.09
2019-01-25T09:47:23.547Z,78.16
2019-01-25T09:49:54.661Z,78.58
2019-01-25T09:52:26.609Z,78.61
2019-01-25T09:54:58.189Z,78.13
2019-01-25T09:57:29.907Z,76.96
2019-01-25T10:00:01.559Z,76.49
2019-01-25T10:02:33.050Z,76.54
2019-01-25T10:05:04.267Z,76.44
2019-01-25T10:07:35.989Z,76.35
2019-01-25T10:10:07.582Z,76.28
2019-01-25T10:12:43.458Z,76.13
2019-01-25T10:15:15.584Z,75.64
2019-01-25T10:17:46.295Z,75.67
2019-01-25T10:20:17.473Z,75.68
2019-01-25T10:22:48.977Z,75.93
2019-01-25T10:25:20.546Z,76.09
2019-01-25T10:27:52.451Z,75.90
2019-01-25T10:30:25.325Z,75.44
2019-01-25T10:32:56.769Z,75.35
2019-01-25T10:35:28.085Z,75.27
2019-01-25T10:37:59.587Z,74.76
2019-01-25T10:40:30.707Z,74.80
2019-01-25T10:43:01.839Z,74.68
2019-01-25T10:45:36.481Z,74.66
2019-01-25T10:48:09.193Z,74.94
2019-01-25T10:50:40.227Z,74.54
2019-01-25T10:53:11.605Z,74.26
2019-01-25T10:55:42.345Z,74.34
2019-01-25T10:58:13.168Z,74.55
2019-01-25T11:00:43.895Z,74.40
2019-01-25T11:03:15.386Z,73.92
2019-01-25T11:05:47.036Z,74.03
2019-01-25T11:08:18.334Z,73.88
2019-01-25T11:10:51.190Z,73.39
2019-01-25T11:13:22.556Z,74.12
2019-01-25T11:15:54.204Z,74.14
2019-01-25T11:18:25.855Z,73.87
2019-01-25T11:20:57.524Z,74.04
2019-01-25T11:23:29.014Z,74.10
2019-01-25T11:26:00.425Z,74.34
2019-01-25T11:28:31.548Z,74.07
2019-01-25T11:31:02.917Z,73.90
2019-01-25T11:33:33.941Z,73.50
2019-01-25T11:36:04.591Z,73.75
2019-01-25T11:38:35.324Z,73.02
2019-01-25T11:41:06.420Z,73.17
2019-01-25T11:43:37.762Z,72.67
2019-01-25T11:46:08.810Z,72.98
2019-01-25T11:48:39.890Z,72.11
2019-01-25T11:51:11.155Z,72.24
2019-01-25T11:53:42.179Z,71.55
2019-01-25T11:56:13.279Z,71.71
2019-01-25T11:58:45.046Z,70.71
2019-01-25T12:01:16.124Z,71.33
2019-01-25T12:03:47.238Z,71.34
2019-01-25T12:06:18.756Z,71.05
2019-01-25T12:08:50.120Z,70.76
2019-01-25T12:11:21.127Z,70.17
2019-01-25T12:13:51.864Z,69.75
2019-01-25T12:16:23.274Z,70.18
2019-01-25T12:18:54.491Z,71.05
2019-01-25T12:21:26.138Z,69.94
2019-01-25T12:23:57.171Z,70.54
2019-01-25T12:26:29.343Z,71.89
2019-01-25T12:29:00.769Z,70.98
2019-01-25T12:31:32.535Z,72.26
2019-01-25T12:34:03.910Z,72.64
2019-01-25T12:36:34.976Z,73.32
2019-01-25T12:39:09.445Z,73.58
2019-01-25T12:41:45.342Z,73.95
2019-01-25T12:44:17.058Z,73.50
2019-01-25T12:46:53.402Z,72.27
2019-01-25T12:49:37.732Z,71.11
2019-01-25T12:52:13.085Z,70.25
2019-01-25T12:54:45.275Z,70.69
2019-01-25T12:57:21.197Z,71.32
2019-01-25T13:00:00.792Z,71.86
2019-01-25T13:02:32.309Z,70.37
2019-01-25T13:05:03.681Z,69.50
2019-01-25T13:07:34.716Z,70.41
2019-01-25T13:10:07.890Z,68.66
2019-01-25T13:12:39.695Z,69.55
2019-01-25T13:15:12.664Z,68.98
2019-01-25T13:17:43.752Z,68.19
2019-01-25T13:20:23.500Z,69.01
2019-01-25T13:22:55.196Z,66.95
2019-01-25T13:25:26.705Z,66.71
2019-01-25T13:27:58.678Z,67.91
2019-01-25T13:30:31.988Z,66.98
2019-01-25T13:33:03.598Z,67.32
2019-01-25T13:35:35.416Z,68.15
2019-01-25T13:38:07.719Z,68.87
2019-01-25T13:40:38.724Z,66.80
2019-01-25T13:43:10.140Z,68.62
2019-01-25T13:45:41.261Z,68.21
2019-01-25T13:48:12.784Z,68.41
2019-01-25T13:50:43.827Z,68.79
2019-01-25T13:53:16.206Z,68.71
2019-01-25T13:55:47.244Z,68.48
2019-01-25T13:58:18.883Z,69.24
2019-01-25T14:00:50.360Z,69.17
2019-01-25T14:03:21.509Z,69.36
2019-01-25T14:05:52.676Z,69.41
2019-01-25T14:08:23.792Z,69.75
2019-01-25T14:10:54.860Z,69.95
2019-01-25T14:13:25.961Z,69.13
2019-01-25T14:15:56.912Z,70.31
2019-01-25T14:18:28.076Z,70.01
2019-01-25T14:21:01.881Z,69.65
2019-01-25T14:23:32.970Z,71.24
2019-01-25T14:26:03.997Z,70.14
2019-01-25T14:28:35.420Z,70.25
2019-01-25T14:31:06.859Z,69.85
2019-01-25T14:33:37.906Z,70.71
2019-01-25T14:36:10.828Z,70.58
2019-01-25T14:38:42.859Z,70.59
2019-01-25T14:41:13.935Z,70.83
2019-01-25T14:43:45.341Z,71.40
2019-01-25T14:46:16.373Z,70.92
2019-01-25T14:48:47.391Z,70.22
2019-01-25T14:51:18.132Z,70.31
2019-01-25T14:53:51.041Z,70.51
2019-01-25T14:56:21.978Z,70.62
2019-01-25T14:58:52.758Z,70.92
2019-01-25T15:01:23.395Z,71.24
2019-01-25T15:03:54.021Z,71.26
2019-01-25T15:06:24.955Z,71.37
2019-01-25T15:08:55.700Z,71.25
2019-01-25T15:11:26.555Z,72.02
2019-01-25T15:14:02.281Z,72.23
2019-01-25T15:16:29.656Z,71.88
2019-01-25T15:19:00.978Z,71.76
2019-01-25T15:21:32.149Z,72.23
2019-01-25T15:24:03.650Z,72.51
2019-01-25T15:26:35.099Z,72.63
2019-01-25T15:29:06.228Z,72.02
2019-01-25T15:31:37.354Z,71.18
2019-01-25T15:34:08.364Z,71.57
2019-01-25T15:36:39.644Z,71.40
2019-01-25T15:39:11.702Z,71.63
2019-01-25T15:41:44.039Z,71.00
2019-01-25T15:44:15.025Z,71.24
2019-01-25T15:46:45.840Z,70.45
2019-01-25T15:49:16.506Z,70.38
2019-01-25T15:51:47.567Z,70.34
2019-01-25T15:54:18.232Z,70.35
2019-01-25T15:56:48.975Z,69.67
2019-01-25T15:59:19.798Z,69.70
2019-01-25T16:01:50.838Z,69.67
2019-01-25T16:04:21.579Z,69.95
2019-01-25T16:06:52.953Z,69.98
2019-01-25T16:09:24.267Z,70.13
2019-01-25T16:11:55.198Z,70.61
2019-01-25T16:14:26.098Z,70.84
2019-01-25T16:16:56.875Z,71.54
2019-01-25T16:19:27.644Z,70.55
2019-01-25T16:21:58.751Z,70.39
2019-01-25T16:24:30.045Z,70.50
2019-01-25T16:27:00.804Z,70.36
2019-01-25T16:29:31.572Z,70.63
2019-01-25T16:32:02.202Z,70.42
2019-01-25T16:34:32.838Z,70.64
2019-01-25T16:37:03.500Z,70.79
2019-01-25T16:39:34.140Z,70.65
2019-01-25T16:42:04.742Z,70.87
2019-01-25T16:44:36.398Z,71.16
2019-01-25T16:47:07.833Z,70.87
2019-01-25T16:49:38.447Z,71.33
2019-01-25T16:52:09.456Z,71.42
2019-01-25T16:54:40.559Z,71.35
2019-01-25T16:57:11.351Z,72.19
2019-01-25T16:59:42.060Z,71.49
2019-01-25T17:02:12.763Z,72.07
2019-01-25T17:04:44.621Z,71.27
2019-01-25T17:07:15.744Z,71.37
2019-01-25T17:09:46.388Z,71.18
2019-01-25T17:12:17.091Z,71.31
2019-01-25T17:14:48.109Z,71.44
2019-01-25T17:17:18.834Z,71.37
2019-01-25T17:19:49.515Z,71.54
2019-01-25T17:22:20.592Z,71.41
2019-01-25T17:24:51.567Z,71.32
2019-01-25T17:27:22.301Z,71.59
2019-01-25T17:29:52.896Z,71.37
2019-01-25T17:32:23.470Z,71.43
2019-01-25T17:34:54.056Z,71.35
2019-01-25T17:37:24.858Z,71.88
2019-01-25T17:39:55.827Z,71.65
2019-01-25T17:42:28.166Z,71.50
2019-01-25T17:44:58.932Z,71.68
2019-01-25T17:47:29.659Z,71.46
2019-01-25T17:50:00.380Z,71.35
2019-01-25T17:52:31.187Z,71.27
2019-01-25T17:55:02.108Z,71.47
2019-01-25T17:57:32.856Z,71.59
2019-01-25T18:00:04.419Z,71.75
2019-01-25T18:02:35.322Z,71.72
2019-01-25T18:05:06.486Z,71.64
2019-01-25T18:07:37.233Z,71.60
2019-01-25T18:10:10.938Z,71.97
2019-01-25T18:12:41.923Z,71.82
2019-01-25T18:15:13.527Z,72.22
2019-01-25T18:17:44.256Z,72.10
2019-01-25T18:20:16.737Z,71.96
2019-01-25T18:22:48.019Z,72.13
2019-01-25T18:25:24.874Z,72.17
2019-01-25T18:28:00.666Z,72.33
2019-01-25T18:30:37.839Z,72.20
2019-01-25T18:33:08.775Z,72.38
2019-01-25T18:35:39.614Z,72.36
2019-01-25T18:38:10.840Z,72.23
2019-01-25T18:40:41.479Z,72.18
2019-01-25T18:43:12.280Z,72.28
2019-01-25T18:45:43.065Z,72.16
2019-01-25T18:48:14.285Z,72.25
2019-01-25T18:50:45.239Z,72.27
2019-01-25T18:53:16.703Z,72.54
2019-01-25T18:55:47.490Z,72.39
2019-01-25T18:58:18.265Z,72.38
2019-01-25T19:00:49.191Z,72.34
2019-01-25T19:03:19.998Z,72.60
2019-01-25T19:05:51.426Z,72.54
2019-01-25T19:08:22.694Z,72.50
2019-01-25T19:10:53.425Z,72.67
2019-01-25T19:13:24.155Z,72.80
2019-01-25T19:15:55.006Z,72.63
2019-01-25T19:18:25.858Z,72.58
2019-01-25T19:20:56.821Z,72.72
2019-01-25T19:23:27.953Z,72.79
2019-01-25T19:25:58.738Z,72.77
2019-01-25T19:28:29.840Z,72.71
2019-01-25T19:31:00.841Z,72.91
2019-01-25T19:33:31.556Z,73.25
2019-01-25T19:36:02.343Z,73.46
2019-01-25T19:38:33.797Z,73.67
2019-01-25T19:41:05.057Z,74.04
2019-01-25T19:43:36.009Z,74.41
2019-01-25T19:46:06.862Z,74.64
2019-01-25T19:48:38.174Z,74.87
2019-01-25T19:51:10.517Z,74.86
2019-01-25T19:53:41.438Z,74.65
2019-01-25T19:56:12.192Z,74.39
2019-01-25T19:58:43.220Z,74.29
2019-01-25T20:01:14.047Z,74.35
2019-01-25T20:03:45.191Z,74.64
2019-01-25T20:06:15.928Z,74.58
2019-01-25T20:08:46.611Z,74.62
2019-01-25T20:11:17.478Z,74.78
2019-01-25T20:13:48.504Z,75.15
2019-01-25T20:16:19.694Z,75.28
2019-01-25T20:18:50.379Z,75.86
2019-01-25T20:21:21.503Z,76.32
2019-01-25T20:23:52.242Z,76.77
2019-01-25T20:26:23.381Z,77.40
2019-01-25T20:28:54.502Z,77.61
2019-01-25T20:31:25.907Z,77.99
2019-01-25T20:33:57.002Z,78.48
2019-01-25T20:36:27.938Z,79.10
2019-01-25T20:38:58.725Z,79.63
2019-01-25T20:41:29.478Z,80.15
2019-01-25T20:44:00.416Z,80.67
2019-01-25T20:46:31.249Z,81.00
2019-01-25T20:49:02.098Z,81.41
2019-01-25T20:51:32.756Z,81.65
2019-01-25T20:54:03.571Z,82.15
2019-01-25T20:56:34.317Z,82.63
2019-01-25T20:59:05.033Z,83.15
2019-01-25T21:01:35.862Z,83.53
2019-01-25T21:04:06.687Z,83.74
2019-01-25T21:06:37.742Z,84.08
2019-01-25T21:09:11.527Z,84.25
2019-01-25T21:11:42.331Z,84.59
2019-01-25T21:14:13.441Z,84.68
2019-01-25T21:16:44.581Z,84.74
2019-01-25T21:19:15.412Z,84.90
2019-01-25T21:21:46.220Z,84.96
2019-01-25T21:24:17.611Z,85.20
2019-01-25T21:26:48.325Z,85.08
2019-01-25T21:29:19.278Z,85.17
2019-01-25T21:31:50.069Z,85.35
2019-01-25T21:34:20.861Z,85.60
2019-01-25T21:36:51.507Z,85.60
2019-01-25T21:39:22.402Z,86.01
2019-01-25T21:41:53.470Z,86.22
2019-01-25T21:44:25.227Z,86.38
2019-01-25T21:46:56.817Z,86.46
2019-01-25T21:49:28.366Z,86.75
2019-01-25T21:51:59.571Z,86.81
2019-01-25T21:54:30.685Z,86.94
2019-01-25T21:57:02.098Z,87.01
2019-01-25T21:59:33.362Z,87.20
2019-01-25T22:02:04.430Z,87.30
2019-01-25T22:04:35.928Z,87.35
2019-01-25T22:07:07.132Z,87.42
2019-01-25T22:09:38.224Z,87.54
2019-01-25T22:12:09.616Z,87.54
2019-01-25T22:14:40.603Z,87.66
2019-01-25T22:17:12.141Z,87.59
2019-01-25T22:19:43.025Z,87.73
2019-01-25T22:22:14.783Z,87.78
2019-01-25T22:24:46.914Z,87.92
2019-01-25T22:27:19.031Z,88.03
2019-01-25T22:29:50.885Z,88.03
2019-01-25T22:32:33.642Z,88.22
2019-01-25T22:35:09.780Z,88.32
2019-01-25T22:37:41.656Z,88.39
2019-01-25T22:40:17.457Z,88.44
2019-01-25T22:42:49.373Z,88.48
2019-01-25T22:45:23.604Z,88.50
2019-01-25T22:47:57.386Z,88.44
2019-01-25T22:50:34.984Z,88.35
2019-01-25T22:53:07.350Z,88.31
2019-01-25T22:55:38.366Z,88.33
2019-01-25T22:58:09.554Z,88.21
2019-01-25T23:00:59.936Z,88.34
2019-01-25T23:04:23.704Z,88.34
2019-01-25T23:07:10.097Z,88.32
2019-01-25T23:10:04.205Z,88.25
2019-01-25T23:12:36.020Z,88.32
2019-01-25T23:15:10.104Z,88.31
2019-01-25T23:17:41.471Z,88.09
2019-01-25T23:20:14.036Z,88.19
2019-01-25T23:22:45.086Z,88.15
2019-01-25T23:25:16.047Z,88.22
2019-01-25T23:27:47.200Z,88.18
2019-01-25T23:30:19.275Z,87.71
2019-01-25T23:32:50.028Z,88.04
2019-01-25T23:35:20.824Z,88.09
2019-01-25T23:37:51.505Z,88.23
2019-01-25T23:40:22.293Z,88.25
2019-01-25T23:42:53.317Z,88.21
2019-01-25T23:45:24.328Z,88.27
2019-01-25T23:47:55.369Z,88.26
2019-01-25T23:50:27.014Z,88.39
2019-01-25T23:52:59.281Z,88.49
2019-01-25T23:55:30.456Z,88.33
2019-01-25T23:58:02.167Z,88.59
